createdAt,value
2023-04-30T00:01:00.620Z,22.11
2023-04-30T00:03:27.721Z,22.27
2023-04-30T00:05:54.906Z,22.38
2023-04-30T00:08:22.121Z,21.35
2023-04-30T00:10:49.278Z,21.90
2023-04-30T00:13:16.497Z,22.05
2023-04-30T00:15:43.601Z,21.98
2023-04-30T00:18:10.868Z,21.45
2023-04-30T00:20:37.923Z,21.55
2023-04-30T00:23:04.985Z,20.56
2023-04-30T00:25:32.060Z,21.80
2023-04-30T00:27:59.473Z,21.88
2023-04-30T00:30:26.518Z,21.37
2023-04-30T00:32:53.637Z,21.70
2023-04-30T00:35:20.858Z,22.14
2023-04-30T00:37:47.874Z,22.20
2023-04-30T00:40:15.134Z,22.07
2023-04-30T00:42:42.191Z,21.95
2023-04-30T00:45:09.819Z,22.12
2023-04-30T00:47:37.095Z,22.12
2023-04-30T00:50:04.480Z,22.08
2023-04-30T00:52:31.762Z,22.33
2023-04-30T00:54:59.188Z,22.17
2023-04-30T00:57:27.350Z,22.24
2023-04-30T00:59:55.741Z,22.51
2023-04-30T01:02:23.745Z,21.97
2023-04-30T01:04:52.136Z,22.12
2023-04-30T01:07:19.369Z,22.12
2023-04-30T01:09:46.466Z,21.72
2023-04-30T01:12:29.879Z,22.41
2023-04-30T01:15:05.035Z,22.07
2023-04-30T01:17:56.477Z,22.35
2023-04-30T01:20:26.723Z,22.23
2023-04-30T01:23:32.895Z,22.47
2023-04-30T01:26:24.649Z,22.17
2023-04-30T01:28:54.663Z,22.23
2023-04-30T01:31:24.723Z,21.92
2023-04-30T01:33:51.803Z,22.07
2023-04-30T01:36:49.133Z,22.54
2023-04-30T01:40:15.220Z,22.18
2023-04-30T01:43:10.593Z,22.50
2023-04-30T01:46:04.965Z,22.44
2023-04-30T01:48:45.555Z,21.92
2023-04-30T01:51:21.950Z,21.83
2023-04-30T01:53:49.373Z,21.85
2023-04-30T01:56:32.690Z,22.13
2023-04-30T01:59:01.895Z,22.18
2023-04-30T02:01:32.075Z,22.10
2023-04-30T02:04:00.369Z,22.06
2023-04-30T02:06:29.666Z,22.01
2023-04-30T02:09:02.898Z,21.85
2023-04-30T02:11:30.522Z,21.89
2023-04-30T02:13:57.848Z,21.67
2023-04-30T02:16:25.137Z,21.43
2023-04-30T02:18:52.576Z,21.51
2023-04-30T02:21:19.915Z,21.84
2023-04-30T02:23:47.731Z,21.68
2023-04-30T02:26:14.809Z,21.85
2023-04-30T02:28:42.532Z,21.75
2023-04-30T02:31:10.678Z,21.73
2023-04-30T02:33:37.723Z,21.85
2023-04-30T02:36:05.564Z,21.90
2023-04-30T02:38:32.592Z,21.91
2023-04-30T02:40:59.618Z,21.68
2023-04-30T02:43:26.622Z,21.50
2023-04-30T02:45:54.335Z,21.68
2023-04-30T02:48:22.736Z,21.68
2023-04-30T02:50:49.736Z,21.18
2023-04-30T02:53:16.871Z,20.96
2023-04-30T02:55:43.940Z,21.39
2023-04-30T02:58:11.011Z,21.14
2023-04-30T03:00:38.152Z,21.31
2023-04-30T03:03:05.384Z,21.07
2023-04-30T03:05:32.511Z,21.16
2023-04-30T03:07:59.468Z,21.40
2023-04-30T03:10:26.474Z,21.35
2023-04-30T03:12:54.230Z,21.37
2023-04-30T03:15:21.313Z,21.38
2023-04-30T03:17:48.469Z,21.04
2023-04-30T03:20:15.987Z,21.09
2023-04-30T03:22:43.154Z,21.18
2023-04-30T03:25:11.643Z,21.12
2023-04-30T03:27:38.811Z,21.20
2023-04-30T03:30:07.324Z,20.86
2023-04-30T03:32:34.451Z,20.66
2023-04-30T03:35:01.504Z,20.68
2023-04-30T03:37:29.166Z,20.50
2023-04-30T03:39:56.370Z,21.01
2023-04-30T03:42:23.860Z,20.86
2023-04-30T03:44:50.886Z,21.07
2023-04-30T03:47:18.064Z,20.80
2023-04-30T03:49:45.163Z,20.84
2023-04-30T03:52:12.200Z,20.98
2023-04-30T03:54:39.528Z,20.57
2023-04-30T03:57:07.979Z,20.48
2023-04-30T03:59:35.203Z,20.04
2023-04-30T04:02:02.548Z,20.62
2023-04-30T04:04:30.356Z,20.90
2023-04-30T04:06:57.487Z,20.83
2023-04-30T04:09:24.641Z,20.56
2023-04-30T04:11:51.995Z,20.77
2023-04-30T04:14:19.010Z,20.81
2023-04-30T04:16:46.938Z,20.73
2023-04-30T04:19:14.282Z,20.68
2023-04-30T04:21:41.562Z,20.89
2023-04-30T04:24:14.617Z,20.93
2023-04-30T04:26:42.778Z,20.81
2023-04-30T04:29:12.279Z,20.95
2023-04-30T04:31:42.257Z,20.98
2023-04-30T04:34:11.665Z,20.98
2023-04-30T04:36:39.707Z,21.01
2023-04-30T04:39:07.109Z,20.87
2023-04-30T04:41:38.294Z,20.99
2023-04-30T04:44:06.470Z,20.99
2023-04-30T04:46:44.532Z,21.41
2023-04-30T04:49:12.733Z,20.61
2023-04-30T04:51:39.852Z,20.77
2023-04-30T04:54:07.469Z,20.49
2023-04-30T04:56:34.571Z,20.67
2023-04-30T04:59:01.733Z,20.88
2023-04-30T05:01:29.602Z,20.93
2023-04-30T05:03:56.895Z,21.00
2023-04-30T05:06:23.986Z,20.85
2023-04-30T05:08:51.068Z,20.98
2023-04-30T05:11:18.254Z,20.60
2023-04-30T05:13:48.907Z,21.16
2023-04-30T05:16:16.461Z,21.17
2023-04-30T05:18:43.683Z,20.70
2023-04-30T05:21:10.784Z,20.91
2023-04-30T05:23:38.376Z,21.05
2023-04-30T05:26:05.567Z,20.98
2023-04-30T05:28:33.892Z,21.04
2023-04-30T05:31:01.350Z,20.81
2023-04-30T05:33:28.351Z,20.57
2023-04-30T05:35:55.588Z,20.61
2023-04-30T05:38:23.188Z,20.67
2023-04-30T05:40:50.216Z,20.35
2023-04-30T05:43:17.167Z,20.02
2023-04-30T05:45:44.307Z,20.25
2023-04-30T05:48:11.509Z,20.46
2023-04-30T05:50:38.571Z,20.40
2023-04-30T05:53:05.765Z,20.59
2023-04-30T05:55:33.153Z,19.70
2023-04-30T05:58:00.204Z,20.23
2023-04-30T06:00:27.217Z,20.01
2023-04-30T06:02:54.393Z,19.92
2023-04-30T06:05:21.765Z,20.07
2023-04-30T06:07:48.810Z,19.33
2023-04-30T06:10:15.970Z,19.42
2023-04-30T06:12:43.003Z,20.04
2023-04-30T06:15:10.432Z,20.00
2023-04-30T06:17:37.731Z,19.64
2023-04-30T06:20:07.209Z,19.83
2023-04-30T06:22:34.780Z,19.53
2023-04-30T06:25:03.600Z,19.70
2023-04-30T06:27:32.472Z,18.85
2023-04-30T06:30:01.081Z,19.06
2023-04-30T06:32:28.365Z,19.39
2023-04-30T06:34:56.087Z,19.96
2023-04-30T06:37:23.377Z,19.91
2023-04-30T06:39:51.614Z,19.82
2023-04-30T06:42:18.711Z,19.83
2023-04-30T06:44:47.236Z,20.31
2023-04-30T06:47:14.439Z,20.23
2023-04-30T06:49:41.692Z,20.51
2023-04-30T06:52:11.147Z,20.45
2023-04-30T06:54:38.177Z,20.40
2023-04-30T06:57:05.777Z,20.44
2023-04-30T06:59:33.151Z,19.94
2023-04-30T07:02:00.215Z,20.02
2023-04-30T07:04:27.879Z,19.50
2023-04-30T07:06:54.872Z,19.53
2023-04-30T07:09:21.938Z,20.23
2023-04-30T07:11:49.239Z,19.90
2023-04-30T07:14:16.243Z,19.96
2023-04-30T07:16:43.423Z,20.41
2023-04-30T07:19:10.586Z,20.08
2023-04-30T07:21:37.654Z,20.26
2023-04-30T07:24:05.527Z,19.88
2023-04-30T07:26:32.538Z,19.93
2023-04-30T07:28:59.634Z,19.95
2023-04-30T07:31:27.062Z,20.45
2023-04-30T07:33:55.487Z,20.49
2023-04-30T07:36:23.142Z,20.72
2023-04-30T07:38:50.319Z,20.81
2023-04-30T07:41:17.332Z,20.00
2023-04-30T07:43:44.662Z,20.19
2023-04-30T07:46:12.111Z,20.32
2023-04-30T07:48:39.186Z,20.54
2023-04-30T07:51:06.268Z,19.85
2023-04-30T07:53:33.560Z,20.05
2023-04-30T07:56:02.189Z,20.75
2023-04-30T07:58:29.302Z,20.77
2023-04-30T08:00:56.497Z,20.63
2023-04-30T08:03:23.583Z,20.43
2023-04-30T08:05:52.101Z,20.75
2023-04-30T08:08:19.199Z,20.60
2023-04-30T08:10:46.493Z,21.15
2023-04-30T08:13:13.573Z,21.11
2023-04-30T08:15:41.084Z,20.84
2023-04-30T08:18:09.894Z,21.69
2023-04-30T08:20:38.549Z,21.02
2023-04-30T08:23:06.135Z,21.01
2023-04-30T08:25:33.207Z,20.74
2023-04-30T08:28:00.308Z,20.66
2023-04-30T08:30:27.644Z,20.53
2023-04-30T08:32:57.503Z,21.01
2023-04-30T08:35:26.331Z,20.32
2023-04-30T08:37:54.108Z,20.84
2023-04-30T08:40:23.504Z,20.51
2023-04-30T08:43:06.692Z,20.89
2023-04-30T08:45:35.222Z,21.14
2023-04-30T08:48:04.726Z,21.33
2023-04-30T08:50:32.459Z,21.01
2023-04-30T08:53:01.043Z,21.17
2023-04-30T08:55:28.412Z,21.03
2023-04-30T08:57:55.542Z,21.35
2023-04-30T09:00:22.725Z,21.29
2023-04-30T09:02:50.604Z,21.59
2023-04-30T09:05:17.677Z,21.95
2023-04-30T09:10:19.925Z,21.98
2023-04-30T09:13:04.949Z,22.07
2023-04-30T09:15:34.155Z,22.46
2023-04-30T09:18:17.702Z,22.10
2023-04-30T09:21:01.941Z,21.85
2023-04-30T09:23:30.427Z,21.77
2023-04-30T09:25:57.804Z,21.77
2023-04-30T09:28:26.675Z,21.34
2023-04-30T09:30:56.996Z,21.12
2023-04-30T09:33:24.167Z,21.73
2023-04-30T09:35:51.284Z,22.08
2023-04-30T09:38:30.686Z,22.66
2023-04-30T09:41:00.445Z,22.43
2023-04-30T09:43:31.619Z,22.32
2023-04-30T09:46:00.495Z,22.07
2023-04-30T09:48:28.669Z,22.18
2023-04-30T09:50:55.862Z,22.11
2023-04-30T09:53:24.279Z,22.55
2023-04-30T09:55:52.570Z,22.22
2023-04-30T09:58:20.508Z,22.13
2023-04-30T10:00:49.633Z,21.77
2023-04-30T10:03:17.228Z,22.22
2023-04-30T10:05:47.603Z,22.83
2023-04-30T10:08:27.820Z,22.82
2023-04-30T10:11:03.951Z,22.63
2023-04-30T10:13:50.019Z,22.91
2023-04-30T10:16:46.143Z,23.02
2023-04-30T10:19:24.517Z,22.21
2023-04-30T10:21:52.401Z,22.03
2023-04-30T10:24:24.630Z,22.19
2023-04-30T10:26:54.732Z,22.06
2023-04-30T10:29:25.951Z,21.92
2023-04-30T10:31:54.334Z,22.30
2023-04-30T10:34:54.084Z,22.18
2023-04-30T10:37:29.633Z,21.80
2023-04-30T10:40:02.225Z,22.45
2023-04-30T10:42:33.708Z,22.75
2023-04-30T10:45:08.728Z,22.24
2023-04-30T10:47:37.845Z,22.91
2023-04-30T10:50:10.432Z,22.62
2023-04-30T10:52:47.595Z,22.95
2023-04-30T10:55:26.110Z,23.28
2023-04-30T10:57:58.936Z,22.73
2023-04-30T11:00:30.818Z,22.49
2023-04-30T11:03:04.269Z,22.84
2023-04-30T11:05:41.791Z,23.29
2023-04-30T11:08:14.765Z,23.56
2023-04-30T11:11:06.192Z,23.61
2023-04-30T11:13:48.435Z,22.54
2023-04-30T11:16:20.353Z,22.26
2023-04-30T11:19:11.918Z,21.99
2023-04-30T11:22:06.297Z,23.09
2023-04-30T11:25:07.548Z,23.01
2023-04-30T11:27:47.985Z,22.72
2023-04-30T11:30:18.255Z,22.79
2023-04-30T11:32:49.942Z,23.11
2023-04-30T11:35:59.560Z,22.38
2023-04-30T11:39:05.921Z,22.58
2023-04-30T11:41:48.845Z,22.86
2023-04-30T11:44:33.060Z,23.61
2023-04-30T11:47:40.808Z,24.18
2023-04-30T11:50:47.049Z,24.71
2023-04-30T11:53:26.032Z,23.69
2023-04-30T11:56:00.540Z,23.90
2023-04-30T11:58:38.255Z,24.25
2023-04-30T12:01:15.282Z,24.58
2023-04-30T12:03:49.069Z,24.17
2023-04-30T12:06:30.145Z,24.11
2023-04-30T12:09:06.245Z,24.62
2023-04-30T12:11:38.545Z,24.39
2023-04-30T12:14:08.033Z,24.58
2023-04-30T12:16:49.495Z,24.27
2023-04-30T12:19:18.873Z,24.20
2023-04-30T12:21:47.560Z,25.10
2023-04-30T12:24:17.684Z,25.36
2023-04-30T12:26:45.832Z,24.90
2023-04-30T12:29:18.960Z,24.34
2023-04-30T12:31:49.792Z,24.70
2023-04-30T12:34:18.568Z,23.77
2023-04-30T12:36:45.834Z,23.42
2023-04-30T12:39:18.165Z,24.00
2023-04-30T12:41:48.502Z,24.38
2023-04-30T12:44:27.746Z,25.19
2023-04-30T12:46:57.811Z,24.43
2023-04-30T12:49:27.491Z,26.25
2023-04-30T13:03:10.473Z,23.69
2023-04-30T13:05:37.969Z,23.65
2023-04-30T13:08:06.498Z,25.56
2023-04-30T13:10:36.841Z,26.30
2023-04-30T13:13:03.932Z,25.54
2023-04-30T13:15:31.122Z,25.49
2023-04-30T13:21:25.020Z,23.54
2023-04-30T13:23:54.048Z,23.94
2023-04-30T13:26:23.484Z,24.64
2023-04-30T13:28:51.228Z,24.66
2023-04-30T13:31:18.811Z,24.40
2023-04-30T13:33:46.115Z,24.43
2023-04-30T13:36:13.308Z,24.22
2023-04-30T13:38:40.809Z,25.53
2023-04-30T13:41:07.998Z,26.08
2023-04-30T13:43:35.134Z,26.06
2023-04-30T13:46:02.207Z,27.06
2023-04-30T13:48:29.350Z,27.82
2023-04-30T13:50:57.690Z,28.31
2023-04-30T13:53:25.039Z,28.79
2023-04-30T13:55:52.895Z,27.08
2023-04-30T13:58:20.134Z,26.23
2023-04-30T14:00:49.806Z,26.88
2023-04-30T14:03:20.221Z,26.12
2023-04-30T14:05:49.956Z,25.32
2023-04-30T14:08:17.068Z,25.07
2023-04-30T14:10:50.085Z,24.91
2023-04-30T14:13:20.124Z,25.64
2023-04-30T14:15:48.778Z,25.34
2023-04-30T14:18:16.262Z,24.90
2023-04-30T14:20:45.283Z,24.89
2023-04-30T14:23:12.732Z,25.11
2023-04-30T14:25:40.394Z,25.61
2023-04-30T14:28:07.771Z,25.85
2023-04-30T14:30:34.919Z,25.82
2023-04-30T14:33:02.024Z,24.72
2023-04-30T14:35:29.112Z,24.87
2023-04-30T14:37:56.398Z,24.70
2023-04-30T14:40:23.562Z,24.71
2023-04-30T14:42:50.808Z,25.11
2023-04-30T14:45:18.137Z,25.02
2023-04-30T14:47:45.252Z,24.97
2023-04-30T14:50:12.524Z,25.04
2023-04-30T14:52:40.586Z,25.94
2023-04-30T14:55:08.250Z,24.90
2023-04-30T14:57:36.460Z,24.71
2023-04-30T15:00:04.748Z,24.62
2023-04-30T15:02:31.874Z,24.46
2023-04-30T15:04:58.934Z,24.75
2023-04-30T15:07:25.893Z,25.06
2023-04-30T15:09:53.142Z,25.13
2023-04-30T15:12:22.328Z,24.47
2023-04-30T15:14:49.441Z,24.79
2023-04-30T15:17:16.485Z,24.71
2023-04-30T15:19:43.913Z,25.33
2023-04-30T15:22:11.013Z,25.27
2023-04-30T15:24:38.362Z,25.27
2023-04-30T15:27:05.344Z,25.42
2023-04-30T15:29:32.305Z,25.06
2023-04-30T15:31:59.842Z,24.65
2023-04-30T15:34:27.058Z,24.68
2023-04-30T15:36:54.362Z,24.57
2023-04-30T15:39:21.830Z,24.05
2023-04-30T15:41:48.922Z,24.37
2023-04-30T15:44:16.196Z,24.79
2023-04-30T15:46:43.305Z,24.29
2023-04-30T15:49:10.532Z,24.16
2023-04-30T15:51:38.499Z,23.94
2023-04-30T15:54:07.383Z,24.33
2023-04-30T15:56:35.797Z,24.52
2023-04-30T15:59:02.789Z,25.08
2023-04-30T16:01:29.846Z,24.36
2023-04-30T16:03:57.018Z,23.81
2023-04-30T16:06:24.656Z,23.82
2023-04-30T16:08:52.275Z,23.84
2023-04-30T16:11:22.617Z,24.21
2023-04-30T16:13:51.431Z,24.11
2023-04-30T16:16:18.720Z,24.16
2023-04-30T16:18:45.786Z,24.49
2023-04-30T16:21:12.843Z,24.12
2023-04-30T16:23:40.653Z,24.07
2023-04-30T16:26:07.866Z,24.97
2023-04-30T16:28:37.969Z,25.38
2023-04-30T16:31:05.389Z,24.91
2023-04-30T16:33:32.513Z,24.63
2023-04-30T16:35:59.772Z,24.89
2023-04-30T16:38:26.831Z,24.42
2023-04-30T16:40:54.410Z,25.13
2023-04-30T16:43:21.454Z,24.47
2023-04-30T16:45:49.994Z,23.87
2023-04-30T16:48:17.635Z,24.24
2023-04-30T16:50:44.835Z,24.46
2023-04-30T16:53:11.899Z,25.06
2023-04-30T16:55:39.070Z,25.46
2023-04-30T16:58:06.337Z,24.14
2023-04-30T17:00:33.619Z,24.80
2023-04-30T17:03:00.712Z,24.99
2023-04-30T17:05:27.825Z,24.76
2023-04-30T17:07:55.128Z,24.41
2023-04-30T17:10:22.415Z,24.67
2023-04-30T17:12:49.448Z,24.18
2023-04-30T17:15:18.393Z,24.14
2023-04-30T17:17:45.680Z,24.30
2023-04-30T17:20:12.665Z,23.92
2023-04-30T17:22:40.196Z,23.75
2023-04-30T17:25:08.138Z,24.15
2023-04-30T17:27:35.322Z,24.46
2023-04-30T17:30:04.772Z,24.22
2023-04-30T17:32:31.880Z,24.23
2023-04-30T17:35:00.150Z,24.71
2023-04-30T17:37:27.184Z,24.66
2023-04-30T17:39:54.439Z,24.51
2023-04-30T17:42:21.712Z,24.31
2023-04-30T17:44:49.073Z,24.59
2023-04-30T17:47:16.360Z,24.99
2023-04-30T17:49:43.420Z,25.08
2023-04-30T17:52:10.504Z,25.04
2023-04-30T17:54:37.501Z,25.09
2023-04-30T17:57:04.621Z,25.11
2023-04-30T17:59:32.012Z,25.03
2023-04-30T18:01:59.688Z,24.80
2023-04-30T18:04:26.914Z,24.30
2023-04-30T18:06:54.030Z,24.47
2023-04-30T18:09:20.976Z,24.47
2023-04-30T18:11:48.070Z,24.27
2023-04-30T18:14:15.127Z,24.66
2023-04-30T18:16:42.323Z,24.39
2023-04-30T18:19:09.700Z,24.18
2023-04-30T18:21:36.668Z,24.27
2023-04-30T18:24:04.003Z,23.98
2023-04-30T18:26:31.070Z,23.95
2023-04-30T18:28:58.324Z,23.98
2023-04-30T18:31:26.044Z,23.83
2023-04-30T18:33:53.138Z,23.89
2023-04-30T18:36:20.177Z,23.90
2023-04-30T18:38:47.115Z,23.99
2023-04-30T18:41:14.080Z,23.76
2023-04-30T18:43:42.742Z,23.69
2023-04-30T18:46:10.011Z,23.59
2023-04-30T18:48:37.058Z,23.57
2023-04-30T18:51:04.716Z,23.71
2023-04-30T18:53:31.793Z,23.75
2023-04-30T18:55:58.757Z,23.61
2023-04-30T18:58:25.750Z,23.41
2023-04-30T19:00:56.653Z,23.54
2023-04-30T19:03:24.783Z,23.39
2023-04-30T19:05:57.545Z,23.54
2023-04-30T19:08:25.118Z,23.25
2023-04-30T19:10:53.265Z,23.20
2023-04-30T19:13:23.756Z,23.42
2023-04-30T19:15:53.081Z,23.23
2023-04-30T19:18:21.235Z,23.34
2023-04-30T19:21:00.323Z,23.54
2023-04-30T19:23:30.465Z,23.38
2023-04-30T19:25:59.188Z,23.33
2023-04-30T19:28:26.297Z,23.10
2023-04-30T19:30:55.341Z,23.06
2023-04-30T19:33:23.738Z,23.18
2023-04-30T19:35:55.135Z,23.18
2023-04-30T19:38:22.324Z,22.95
2023-04-30T19:40:54.362Z,23.09
2023-04-30T19:43:22.788Z,23.05
2023-04-30T19:45:55.750Z,23.13
2023-04-30T19:48:24.439Z,23.06
2023-04-30T19:50:55.772Z,23.24
2023-04-30T19:53:25.652Z,23.12
2023-04-30T19:55:53.183Z,23.07
2023-04-30T19:58:20.881Z,23.16
2023-04-30T20:00:48.348Z,23.32
2023-04-30T20:03:17.503Z,23.50
2023-04-30T20:05:45.021Z,23.32
2023-04-30T20:08:12.452Z,23.12
2023-04-30T20:10:40.990Z,23.11
2023-04-30T20:13:09.599Z,23.25
2023-04-30T20:15:36.881Z,22.91
2023-04-30T20:18:05.738Z,22.97
2023-04-30T20:20:32.880Z,22.93
2023-04-30T20:23:17.705Z,22.96
2023-04-30T20:25:46.257Z,22.80
2023-04-30T20:28:14.929Z,22.78
2023-04-30T20:30:43.022Z,22.66
2023-04-30T20:33:12.195Z,22.77
2023-04-30T20:35:47.492Z,22.61
2023-04-30T20:38:19.666Z,22.53
2023-04-30T20:40:47.466Z,22.50
2023-04-30T20:43:14.670Z,22.59
2023-04-30T20:45:44.732Z,22.67
2023-04-30T20:48:15.252Z,22.61
2023-04-30T20:50:42.408Z,22.41
2023-04-30T20:53:11.267Z,22.30
2023-04-30T20:55:38.566Z,22.27
2023-04-30T20:58:05.956Z,22.22
2023-04-30T21:00:32.980Z,22.21
2023-04-30T21:02:59.981Z,22.10
2023-04-30T21:05:28.524Z,22.07
2023-04-30T21:07:55.481Z,22.10
2023-04-30T21:10:22.944Z,22.24
2023-04-30T21:12:49.913Z,22.15
2023-04-30T21:15:17.391Z,22.18
2023-04-30T21:17:44.380Z,22.20
2023-04-30T21:20:11.982Z,22.20
2023-04-30T21:22:39.906Z,22.12
2023-04-30T21:25:07.570Z,21.99
2023-04-30T21:27:35.202Z,21.93
2023-04-30T21:30:02.138Z,21.93
2023-04-30T21:32:29.312Z,21.88
2023-04-30T21:34:56.538Z,21.92
2023-04-30T21:37:23.577Z,22.02
2023-04-30T21:39:56.515Z,22.00
2023-04-30T21:42:23.675Z,21.80
2023-04-30T21:44:50.634Z,21.91
2023-04-30T21:47:17.546Z,21.78
2023-04-30T21:49:44.555Z,21.82
2023-04-30T21:52:11.668Z,21.81
2023-04-30T21:54:38.819Z,21.82
2023-04-30T21:57:05.966Z,21.81
2023-04-30T21:59:35.514Z,21.88
2023-04-30T22:02:07.210Z,21.75
2023-04-30T22:04:40.194Z,21.67
2023-04-30T22:07:07.238Z,21.70
2023-04-30T22:09:34.313Z,21.71
2023-04-30T22:12:04.446Z,21.77
2023-04-30T22:14:31.435Z,21.72
2023-04-30T22:16:58.429Z,21.63
2023-04-30T22:19:25.689Z,21.58
2023-04-30T22:21:53.009Z,21.51
2023-04-30T22:24:20.089Z,21.31
2023-04-30T22:26:47.176Z,21.34
2023-04-30T22:29:14.122Z,21.34
2023-04-30T22:31:41.454Z,21.39
2023-04-30T22:34:09.268Z,21.40
2023-04-30T22:36:36.231Z,21.52
2023-04-30T22:39:03.763Z,21.42
2023-04-30T22:41:31.053Z,21.42
2023-04-30T22:43:58.212Z,21.38
2023-04-30T22:46:25.296Z,21.30
2023-04-30T22:48:52.627Z,21.29
2023-04-30T22:51:19.711Z,21.24
2023-04-30T22:53:46.803Z,21.16
2023-04-30T22:56:13.805Z,21.20
2023-04-30T22:58:41.039Z,21.17
2023-04-30T23:01:08.397Z,21.23
2023-04-30T23:03:36.107Z,21.35
2023-04-30T23:06:03.212Z,21.28
2023-04-30T23:08:31.088Z,21.26
2023-04-30T23:10:58.047Z,21.02
2023-04-30T23:13:24.991Z,21.05
2023-04-30T23:15:51.924Z,21.11
2023-04-30T23:18:19.569Z,21.15
2023-04-30T23:20:47.536Z,21.04
2023-04-30T23:23:14.509Z,20.92
2023-04-30T23:25:41.650Z,20.84
2023-04-30T23:28:08.760Z,20.81
2023-04-30T23:30:39.151Z,21.03
2023-04-30T23:33:06.460Z,20.85
2023-04-30T23:35:33.523Z,20.66
2023-04-30T23:38:00.566Z,20.84
2023-04-30T23:40:27.630Z,20.84
2023-04-30T23:42:54.575Z,20.88
2023-04-30T23:45:22.425Z,20.75
2023-04-30T23:47:49.968Z,20.78
2023-04-30T23:50:17.222Z,20.72
2023-04-30T23:52:44.337Z,20.62
2023-04-30T23:55:11.660Z,20.62
2023-04-30T23:57:38.614Z,20.56
